Time;durP1;ratioP1;P1;durP2;ratioP2;P2;SDS_P1;SDS_P2;PMS_P1;PMS_P2;Temp;Humidity;BMP_temperature;BMP_pressure;BME280_temperature;BME280_humidity;BME280_pressure;Samples;Min_cycle;Max_cycle;Signal;HPM_P1;HPM_P2
2022/03/12 00:00:00;;;;;;;22.67;11.30;;;-0.50;82.50;;;;;;4972511;28;20043;-83
2022/03/12 00:02:32;;;;;;;20.85;10.07;;;-0.50;82.90;;;;;;4972763;28;20046;-87
2022/03/12 00:04:59;;;;;;;21.65;9.98;;;-0.50;82.30;;;;;;4971238;28;20027;-89
2022/03/12 00:07:27;;;;;;;25.10;10.85;;;-0.50;81.50;;;;;;4972606;28;20172;-88
2022/03/12 00:09:53;;;;;;;20.17;10.25;;;-0.50;81.50;;;;;;4972249;28;20038;-90
2022/03/12 00:12:20;;;;;;;22.08;9.40;;;-0.50;81.60;;;;;;4972511;28;20030;-89
2022/03/12 00:14:48;;;;;;;24.40;9.90;;;-0.40;81.00;;;;;;4957923;28;20053;-88
2022/03/12 00:17:15;;;;;;;19.13;10.45;;;-0.40;80.70;;;;;;4971040;28;20246;-89
2022/03/12 00:19:42;;;;;;;21.08;9.63;;;-0.40;78.60;;;;;;4969226;28;20118;-90
2022/03/12 00:22:09;;;;;;;19.30;10.80;;;-0.30;78.70;;;;;;4972469;28;20498;-90
2022/03/12 00:24:42;;;;;;;23.38;10.77;;;-0.30;78.80;;;;;;4967601;28;20085;-91
2022/03/12 00:27:09;;;;;;;22.73;11.18;;;-0.30;79.50;;;;;;4972128;28;20053;-88
2022/03/12 00:29:35;;;;;;;21.40;9.00;;;-0.20;77.80;;;;;;4970778;28;20035;-89
2022/03/12 00:32:04;;;;;;;22.75;11.15;;;-0.20;77.80;;;;;;4971780;28;20368;-89
2022/03/12 00:34:30;;;;;;;22.40;9.60;;;-0.10;76.50;;;;;;4972569;28;20023;-90
2022/03/12 00:36:56;;;;;;;16.60;9.20;;;0.00;76.50;;;;;;4970598;28;20030;-88
2022/03/12 00:39:21;;;;;;;16.98;9.30;;;0.10;76.10;;;;;;4971311;28;20111;-89
2022/03/12 00:41:47;;;;;;;21.85;9.15;;;0.10;76.10;;;;;;4972795;28;20022;-89
2022/03/12 00:44:16;;;;;;;19.80;9.60;;;0.10;76.00;;;;;;4973261;28;20125;-90
2022/03/12 00:46:42;;;;;;;21.13;10.38;;;0.00;75.40;;;;;;4971669;28;20395;-88
2022/03/12 00:49:07;;;;;;;20.60;10.15;;;0.00;75.80;;;;;;4970402;28;20030;-88
2022/03/12 00:51:33;;;;;;;23.83;11.43;;;0.10;75.20;;;;;;4972011;28;20039;-89
2022/03/12 00:53:59;;;;;;;23.02;9.73;;;0.30;73.80;;;;;;4971612;28;20050;-89
2022/03/12 00:56:24;;;;;;;22.20;10.35;;;0.40;73.10;;;;;;4971895;28;20502;-90
2022/03/12 00:58:50;;;;;;;18.95;9.23;;;0.40;74.10;;;;;;4971743;28;20047;-89
2022/03/12 01:01:17;;;;;;;22.52;9.18;;;0.40;72.40;;;;;;4969907;28;20086;-88
2022/03/12 01:03:43;;;;;;;18.92;9.20;;;0.40;72.20;;;;;;4971560;28;20035;-89
2022/03/12 01:06:12;;;;;;;26.13;10.23;;;0.40;72.40;;;;;;4971861;28;20403;-86
2022/03/12 01:08:37;;;;;;;20.95;11.10;;;0.20;72.80;;;;;;4971324;28;20117;-87
2022/03/12 01:11:08;;;;;;;27.95;10.30;;;0.10;73.70;;;;;;4968665;28;20126;-89
2022/03/12 01:13:34;;;;;;;19.73;9.15;;;0.10;73.50;;;;;;4970019;28;20237;-89
2022/03/12 01:16:00;;;;;;;21.17;9.13;;;0.10;74.20;;;;;;4963320;28;20029;-90
2022/03/12 01:18:26;;;;;;;18.50;9.45;;;0.00;75.00;;;;;;4971852;28;20034;-88
2022/03/12 01:20:53;;;;;;;36.00;9.32;;;-0.10;76.20;;;;;;4970953;28;20027;-88
2022/03/12 01:23:24;;;;;;;15.98;8.45;;;-0.10;74.50;;;;;;4970674;28;20026;-89
2022/03/12 01:25:49;;;;;;;;;;;-0.10;74.60;;;;;;4968898;28;20039;-87
2022/03/12 01:28:16;;;;;;;26.80;11.80;;;-0.10;74.10;;;;;;4970924;28;19929;-89
2022/03/12 01:30:42;;;;;;;22.90;9.48;;;-0.20;75.20;;;;;;4970395;28;20050;-91
2022/03/12 01:33:09;;;;;;;21.83;8.95;;;-0.30;75.60;;;;;;4969641;28;20058;-88
2022/03/12 01:35:36;;;;;;;20.40;9.55;;;-0.20;75.60;;;;;;4970987;28;20030;-89
2022/03/12 01:38:02;;;;;;;16.17;9.13;;;-0.30;77.00;;;;;;4971027;28;20027;-88
2022/03/12 01:40:29;;;;;;;19.92;9.40;;;-0.30;77.20;;;;;;4969685;28;20032;-89
2022/03/12 01:42:55;;;;;;;20.27;9.95;;;-0.20;75.60;;;;;;4970458;28;20079;-88
2022/03/12 01:45:27;;;;;;;17.75;9.05;;;-0.20;75.60;;;;;;4970801;28;20027;-89
2022/03/12 01:47:55;;;;;;;20.63;10.32;;;-0.20;74.70;;;;;;4970880;28;20027;-88
2022/03/12 01:50:24;;;;;;;23.00;9.05;;;-0.40;76.00;;;;;;4973628;28;20035;-87
2022/03/12 01:52:50;;;;;;;17.83;9.23;;;-0.40;75.40;;;;;;4973495;28;20033;-88
2022/03/12 01:55:16;;;;;;;19.80;9.43;;;-0.40;75.50;;;;;;4974932;28;20027;-89
2022/03/12 01:57:42;;;;;;;21.42;9.68;;;-0.40;75.00;;;;;;4974201;28;20114;-90
2022/03/12 02:00:23;;;;;;;19.70;9.80;;;-0.30;75.20;;;;;;4974280;28;20109;-88
2022/03/12 02:02:50;;;;;;;;;;;-0.30;76.70;;;;;;4954966;28;20130;-88
2022/03/12 02:05:16;;;;;;;20.50;8.98;;;-0.40;75.70;;;;;;4974798;28;19918;-87
2022/03/12 02:07:42;;;;;;;20.30;10.32;;;-0.30;75.50;;;;;;4974742;28;20474;-88
2022/03/12 02:10:09;;;;;;;21.33;9.50;;;-0.30;75.30;;;;;;4974841;28;20070;-89
2022/03/12 02:12:36;;;;;;;19.40;8.30;;;-0.50;77.80;;;;;;4970509;28;20422;-87
2022/03/12 02:15:01;;;;;;;23.10;10.20;;;-0.50;77.20;;;;;;4974266;28;20776;-87
2022/03/12 02:17:27;;;;;;;20.35;8.60;;;-0.40;77.80;;;;;;4974431;28;20034;-89
2022/03/12 02:19:52;;;;;;;18.58;8.77;;;-0.40;77.20;;;;;;4974366;28;20084;-89
2022/03/12 02:22:18;;;;;;;25.38;9.73;;;-0.30;76.40;;;;;;4973080;28;20122;-89
2022/03/12 02:24:45;;;;;;;17.58;10.15;;;-0.30;75.90;;;;;;4973391;28;20109;-85
2022/03/12 02:27:11;;;;;;;18.52;8.65;;;-0.20;74.60;;;;;;4974206;28;20019;-87
2022/03/12 02:29:40;;;;;;;18.92;8.88;;;-0.20;74.20;;;;;;4974147;28;20496;-89
2022/03/12 02:32:09;;;;;;;18.10;8.35;;;-0.30;73.80;;;;;;4973630;28;20617;-87
2022/03/12 02:34:48;;;;;;;18.48;8.75;;;-0.40;74.30;;;;;;4973983;28;20026;-87
2022/03/12 02:37:21;;;;;;;18.52;8.82;;;-0.40;74.10;;;;;;4966454;28;20026;-89
2022/03/12 02:39:47;;;;;;;20.00;8.55;;;-0.40;74.90;;;;;;4974463;28;20086;-88
2022/03/12 02:42:13;;;;;;;18.10;8.63;;;-0.30;75.10;;;;;;4973725;28;20026;-88
2022/03/12 02:44:39;;;;;;;16.15;8.48;;;-0.30;74.70;;;;;;4972434;28;20091;-89
2022/03/12 02:47:22;;;;;;;28.92;8.35;;;-0.30;74.90;;;;;;4974039;28;20077;-88
2022/03/12 02:50:03;;;;;;;16.63;8.70;;;-0.30;74.80;;;;;;4973849;28;20035;-88
2022/03/12 02:52:30;;;;;;;18.92;8.70;;;-0.30;75.00;;;;;;4967426;28;20482;-88
2022/03/12 02:54:58;;;;;;;17.73;8.00;;;-0.40;75.40;;;;;;4973770;28;20080;-88
2022/03/12 02:57:25;;;;;;;17.95;8.48;;;-0.40;75.20;;;;;;4973573;28;20031;-89
2022/03/12 02:59:55;;;;;;;16.20;8.38;;;-0.50;74.90;;;;;;4973319;28;20035;-88
2022/03/12 03:02:28;;;;;;;15.98;7.60;;;-0.50;75.70;;;;;;4970471;28;20035;-89
2022/03/12 03:04:54;;;;;;;18.52;8.68;;;-0.50;76.20;;;;;;4973364;28;20050;-89
2022/03/12 03:07:20;;;;;;;16.92;8.25;;;-0.40;75.50;;;;;;4973515;28;20039;-88
2022/03/12 03:09:46;;;;;;;19.10;8.27;;;-0.50;75.40;;;;;;4973584;28;20030;-88
2022/03/12 03:12:13;;;;;;;20.60;9.35;;;-0.40;75.20;;;;;;4970665;28;20153;-89
2022/03/12 03:14:47;;;;;;;16.60;7.68;;;-0.50;75.20;;;;;;4968818;28;20222;-90
2022/03/12 03:17:13;;;;;;;17.27;8.50;;;-0.60;75.70;;;;;;4972467;28;20118;-89
2022/03/12 03:19:40;;;;;;;19.55;8.43;;;-0.60;75.90;;;;;;4973191;28;20161;-90
2022/03/12 03:22:07;;;;;;;16.30;8.10;;;-0.50;75.20;;;;;;4971934;28;20124;-88
2022/03/12 03:24:33;;;;;;;15.32;8.75;;;-0.50;75.00;;;;;;4971617;28;20035;-89
2022/03/12 03:27:01;;;;;;;20.33;9.05;;;-0.50;75.60;;;;;;4972724;28;20027;-87
2022/03/12 03:29:31;;;;;;;22.90;8.13;;;-0.50;75.50;;;;;;4972863;28;20097;-88
2022/03/12 03:31:57;;;;;;;19.65;9.35;;;-0.50;74.90;;;;;;4971267;28;20426;-88
2022/03/12 03:34:24;;;;;;;18.45;7.97;;;-0.50;75.70;;;;;;4967415;28;20378;-88
2022/03/12 03:36:50;;;;;;;20.17;9.15;;;-0.50;74.80;;;;;;4969649;28;20061;-88
2022/03/12 03:39:16;;;;;;;19.65;8.98;;;-0.50;75.40;;;;;;4972747;28;20118;-91
2022/03/12 03:41:43;;;;;;;15.68;8.80;;;-0.50;75.60;;;;;;4972934;28;20547;-88
2022/03/12 03:44:11;;;;;;;15.25;8.48;;;-0.60;75.60;;;;;;4961382;28;20031;-89
2022/03/12 03:46:36;;;;;;;15.45;7.95;;;-0.60;75.70;;;;;;4964348;28;20109;-88
2022/03/12 03:49:04;;;;;;;15.55;7.47;;;-0.60;76.00;;;;;;4972058;28;20035;-86
2022/03/12 03:51:30;;;;;;;15.27;7.35;;;-0.60;74.60;;;;;;4971760;28;20089;-87
2022/03/12 03:53:56;;;;;;;21.60;9.75;;;-0.60;73.00;;;;;;4967326;28;20027;-87
2022/03/12 03:56:22;;;;;;;18.65;8.50;;;-0.60;73.50;;;;;;4971507;28;20162;-88
2022/03/12 03:58:48;;;;;;;14.68;7.10;;;-0.60;73.00;;;;;;4970464;28;20106;-87
2022/03/12 04:01:22;;;;;;;17.90;8.18;;;-0.60;73.40;;;;;;4971351;28;20050;-86
2022/03/12 04:03:48;;;;;;;20.42;8.85;;;-0.70;73.90;;;;;;4967545;28;20090;-86
2022/03/12 04:06:19;;;;;;;17.48;9.23;;;-0.50;76.40;;;;;;4970905;28;20381;-88
2022/03/12 04:08:45;;;;;;;;;;;-0.60;77.00;;;;;;4968295;28;20544;-87
2022/03/12 04:11:24;;;;;;;15.38;7.00;;;-0.50;76.40;;;;;;4971116;28;19917;-89
2022/03/12 04:13:53;;;;;;;18.95;8.65;;;-0.50;78.40;;;;;;4969395;28;20082;-88
2022/03/12 04:16:20;;;;;;;19.33;9.65;;;-0.60;78.20;;;;;;4970768;28;20023;-88
2022/03/12 04:18:47;;;;;;;17.08;8.38;;;-0.60;76.90;;;;;;4970069;28;20031;-91
2022/03/12 04:21:14;;;;;;;15.38;7.68;;;-0.70;77.60;;;;;;4967575;28;20080;-86
2022/03/12 04:23:44;;;;;;;18.85;9.15;;;-0.70;78.90;;;;;;4966637;28;20027;-88
2022/03/12 04:26:10;;;;;;;19.23;7.93;;;-0.70;79.60;;;;;;4969398;28;20068;-90
2022/03/12 04:28:37;;;;;;;20.33;8.98;;;-0.80;79.20;;;;;;4970705;28;20037;-91
2022/03/12 04:31:04;;;;;;;17.20;7.82;;;-0.70;80.10;;;;;;4968946;28;20389;-89
2022/03/12 04:33:30;;;;;;;16.38;7.82;;;-0.70;76.90;;;;;;4970756;28;20026;-88
2022/03/12 04:35:58;;;;;;;17.88;7.75;;;-0.80;78.10;;;;;;4970540;28;20356;-88
2022/03/12 04:38:25;;;;;;;31.63;8.15;;;-0.90;76.30;;;;;;4970302;28;20494;-88
2022/03/12 04:40:51;;;;;;;20.33;7.95;;;-1.00;77.50;;;;;;4969862;28;20050;-90
2022/03/12 04:43:17;;;;;;;14.05;7.80;;;-1.00;77.00;;;;;;4965820;28;20086;-88
2022/03/12 04:45:46;;;;;;;17.38;8.27;;;-1.10;77.40;;;;;;4958098;28;20518;-84
2022/03/12 04:48:17;;;;;;;17.17;7.60;;;-1.10;77.70;;;;;;4969118;28;20069;-80
2022/03/12 04:50:43;;;;;;;15.55;7.13;;;-1.00;77.80;;;;;;4971162;28;20041;-91
2022/03/12 04:53:09;;;;;;;21.40;7.60;;;-1.00;76.10;;;;;;4970697;28;20035;-90
2022/03/12 04:55:39;;;;;;;20.02;8.25;;;-1.00;77.60;;;;;;4970641;28;20434;-88
2022/03/12 04:58:07;;;;;;;15.18;7.75;;;-1.20;77.20;;;;;;4966616;28;20058;-88
2022/03/12 05:00:38;;;;;;;15.23;7.18;;;-1.30;77.10;;;;;;4970210;28;20035;-87
2022/03/12 05:03:09;;;;;;;16.48;7.55;;;-1.30;76.00;;;;;;4970451;28;20070;-89
2022/03/12 05:05:42;;;;;;;14.77;8.45;;;-1.40;76.70;;;;;;4952683;28;20024;-89
2022/03/12 05:08:21;;;;;;;14.95;7.57;;;-1.40;77.00;;;;;;4961699;28;20033;-89
2022/03/12 05:10:49;;;;;;;14.82;7.13;;;-1.40;77.30;;;;;;4970527;28;20110;-88
2022/03/12 05:13:22;;;;;;;15.90;8.15;;;-1.40;77.00;;;;;;4969534;28;20034;-87
2022/03/12 05:15:53;;;;;;;15.90;7.65;;;-1.50;78.50;;;;;;4970404;28;20226;-89
2022/03/12 05:18:21;;;;;;;19.52;8.63;;;-1.50;78.20;;;;;;4969538;28;20386;-89
2022/03/12 05:20:48;;;;;;;15.15;7.28;;;-1.50;78.20;;;;;;4969312;28;20069;-90
2022/03/12 05:23:15;;;;;;;18.50;8.25;;;-1.60;78.50;;;;;;4970628;28;20035;-88
2022/03/12 05:25:42;;;;;;;15.45;7.93;;;-1.50;78.90;;;;;;4964409;28;20035;-86
2022/03/12 05:28:10;;;;;;;15.45;7.50;;;-1.60;79.20;;;;;;4970323;28;20050;-88
2022/03/12 05:30:36;;;;;;;17.17;8.38;;;-1.50;79.90;;;;;;4969526;28;20038;-89
2022/03/12 05:33:04;;;;;;;14.75;7.57;;;-1.60;78.60;;;;;;4970406;28;20023;-90
2022/03/12 05:35:30;;;;;;;14.48;7.93;;;-1.60;79.60;;;;;;4968931;28;20073;-90
2022/03/12 05:37:55;;;;;;;16.17;7.90;;;-1.60;78.90;;;;;;4970233;28;20023;-88
2022/03/12 05:40:26;;;;;;;16.52;7.03;;;-1.60;78.90;;;;;;4969118;28;20039;-88
2022/03/12 05:42:55;;;;;;;13.43;6.90;;;-1.60;78.60;;;;;;4969966;28;20180;-88
2022/03/12 05:45:23;;;;;;;18.17;7.93;;;-1.80;79.00;;;;;;4969720;28;20118;-89
2022/03/12 05:47:50;;;;;;;17.77;7.55;;;-1.70;79.70;;;;;;4951655;28;20358;-88
2022/03/12 05:50:17;;;;;;;13.05;7.63;;;-1.70;79.50;;;;;;4970275;28;20031;-88
2022/03/12 05:52:48;;;;;;;17.98;8.18;;;-1.70;80.60;;;;;;4970180;28;20034;-89
2022/03/12 05:55:23;;;;;;;16.20;8.20;;;-1.70;80.70;;;;;;4969248;28;20077;-88
2022/03/12 05:57:49;;;;;;;19.35;8.43;;;-1.70;81.90;;;;;;4969259;28;20023;-89
2022/03/12 06:00:16;;;;;;;16.35;8.93;;;-1.60;81.70;;;;;;4969503;28;20030;-89
2022/03/12 06:02:46;;;;;;;18.33;7.80;;;-1.70;80.60;;;;;;4970381;28;20127;-92
2022/03/12 06:05:13;;;;;;;17.08;8.20;;;-1.80;79.70;;;;;;4968640;28;20125;-89
2022/03/12 06:07:43;;;;;;;14.35;8.05;;;-1.80;80.10;;;;;;4969410;28;20093;-88
2022/03/12 06:10:09;;;;;;;26.77;7.85;;;-1.70;79.50;;;;;;4969859;28;20037;-90
2022/03/12 06:12:34;;;;;;;21.13;8.13;;;-1.60;79.00;;;;;;4966364;28;20023;-88
2022/03/12 06:15:00;;;;;;;15.35;6.47;;;-1.60;79.90;;;;;;4956285;28;20039;-88
2022/03/12 06:17:26;;;;;;;16.95;8.02;;;-1.50;80.70;;;;;;4968991;28;20086;-89
2022/03/12 06:19:52;;;;;;;15.52;6.68;;;-1.60;80.20;;;;;;4969670;28;20494;-90
2022/03/12 06:22:18;;;;;;;13.70;7.13;;;-1.50;80.40;;;;;;4970131;28;20073;-89
2022/03/12 06:24:46;;;;;;;17.40;7.78;;;-1.50;80.20;;;;;;4970188;28;20062;-88
2022/03/12 06:27:12;;;;;;;14.82;7.13;;;-1.50;79.10;;;;;;4968231;28;20031;-88
2022/03/12 06:29:38;;;;;;;27.38;8.52;;;-1.50;79.40;;;;;;4968770;28;20091;-89
2022/03/12 06:32:06;;;;;;;16.83;8.15;;;-1.60;80.10;;;;;;4968913;28;20055;-87
2022/03/12 06:34:34;;;;;;;16.90;7.70;;;-1.50;80.40;;;;;;4969600;28;20086;-88
2022/03/12 06:36:59;;;;;;;20.73;7.90;;;-1.50;79.70;;;;;;4971812;28;20127;-88
2022/03/12 06:39:25;;;;;;;17.55;8.32;;;-1.30;79.80;;;;;;4972042;28;20113;-89
2022/03/12 06:41:51;;;;;;;16.15;7.60;;;-1.20;79.70;;;;;;4971965;28;20114;-88
2022/03/12 06:44:19;;;;;;;17.70;7.90;;;-1.20;79.10;;;;;;4969220;28;20042;-86
2022/03/12 06:46:45;;;;;;;20.95;7.97;;;-1.10;78.40;;;;;;4966373;28;20106;-86
2022/03/12 06:49:11;;;;;;;13.48;7.70;;;-1.00;79.20;;;;;;4972772;28;20058;-89
2022/03/12 06:51:38;;;;;;;16.38;7.75;;;-0.90;77.80;;;;;;4972181;28;20073;-87
2022/03/12 06:54:04;;;;;;;15.63;7.90;;;-0.90;78.90;;;;;;4972892;28;20130;-88
2022/03/12 06:56:34;;;;;;;18.25;7.38;;;-0.90;79.50;;;;;;4972629;28;20038;-88
2022/03/12 06:59:00;;;;;;;15.05;7.57;;;-0.70;76.20;;;;;;4972674;28;20034;-90
2022/03/12 07:01:25;;;;;;;15.88;7.38;;;-0.60;76.40;;;;;;4972128;28;20034;-89
2022/03/12 07:03:51;;;;;;;14.20;6.93;;;-0.40;74.70;;;;;;4986035;28;20058;-87
2022/03/12 07:06:17;;;;;;;14.13;7.85;;;-0.30;74.60;;;;;;4969893;28;20504;-89
2022/03/12 07:08:42;;;;;;;17.73;8.60;;;-0.20;74.40;;;;;;4963390;28;20043;-87
2022/03/12 07:11:09;;;;;;;16.40;8.35;;;-0.30;72.50;;;;;;4973140;28;20042;-84
2022/03/12 07:13:35;;;;;;;15.13;7.15;;;0.00;71.90;;;;;;4955505;28;20394;-85
2022/03/12 07:16:02;;;;;;;14.43;8.00;;;0.10;71.10;;;;;;4968728;28;20032;-89
2022/03/12 07:18:28;;;;;;;13.85;6.90;;;0.10;71.20;;;;;;4965379;28;20034;-88
2022/03/12 07:20:54;;;;;;;20.95;8.68;;;0.30;70.60;;;;;;4970029;28;20398;-89
2022/03/12 07:23:20;;;;;;;15.68;8.65;;;0.50;69.70;;;;;;4972287;28;20117;-91
2022/03/12 07:25:46;;;;;;;19.33;8.70;;;0.60;69.10;;;;;;4967223;28;20093;-87
2022/03/12 07:28:17;;;;;;;17.05;7.57;;;0.70;68.70;;;;;;4967149;28;20026;-87
2022/03/12 07:30:43;;;;;;;19.92;7.82;;;0.70;67.80;;;;;;4966203;28;20379;-90
2022/03/12 07:33:09;;;;;;;17.27;8.25;;;0.60;67.90;;;;;;4971502;28;20089;-87
2022/03/12 07:35:35;;;;;;;18.20;8.85;;;0.50;68.50;;;;;;4970027;28;20027;-89
2022/03/12 07:38:01;;;;;;;15.05;8.05;;;0.60;68.90;;;;;;4971162;28;20035;-87
2022/03/12 07:40:27;;;;;;;16.98;9.15;;;0.70;68.60;;;;;;4969394;28;20027;-88
2022/03/12 07:42:54;;;;;;;14.73;8.35;;;0.80;68.40;;;;;;4963508;28;20027;-90
2022/03/12 07:45:20;;;;;;;16.25;9.05;;;0.90;67.60;;;;;;4970120;28;20030;-86
2022/03/12 07:47:47;;;;;;;15.90;8.65;;;0.90;67.40;;;;;;4970670;28;20631;-88
2022/03/12 07:50:13;;;;;;;18.77;8.85;;;1.00;67.30;;;;;;4970969;28;20019;-88
2022/03/12 07:52:39;;;;;;;19.92;8.30;;;0.90;67.90;;;;;;4970878;28;20031;-89
2022/03/12 07:55:09;;;;;;;16.25;8.65;;;1.10;68.50;;;;;;4969316;28;20078;-87
2022/03/12 07:57:36;;;;;;;14.70;8.52;;;1.20;68.90;;;;;;4971008;28;20034;-89
2022/03/12 08:00:04;;;;;;;17.10;7.90;;;1.20;68.40;;;;;;4970654;28;20118;-87
2022/03/12 08:02:29;;;;;;;24.33;9.65;;;1.30;68.10;;;;;;4967246;28;20047;-87
2022/03/12 08:04:55;;;;;;;14.55;8.18;;;1.50;67.20;;;;;;4970604;28;20099;-86
2022/03/12 08:07:21;;;;;;;16.77;8.88;;;1.60;67.40;;;;;;4970982;28;20475;-88
2022/03/12 08:09:47;;;;;;;19.05;8.60;;;1.60;67.70;;;;;;4962034;28;20045;-87
2022/03/12 08:12:15;;;;;;;16.67;8.48;;;1.70;67.30;;;;;;4968698;28;20030;-88
2022/03/12 08:14:43;;;;;;;17.70;8.15;;;1.90;66.40;;;;;;4968106;28;20062;-90
2022/03/12 08:17:09;;;;;;;16.77;9.15;;;2.00;65.90;;;;;;4968061;28;20026;-84
2022/03/12 08:19:38;;;;;;;16.20;8.77;;;2.20;66.00;;;;;;4970318;28;20371;-86
2022/03/12 08:22:04;;;;;;;15.88;9.18;;;2.30;64.10;;;;;;4966712;28;20495;-88
2022/03/12 08:24:30;;;;;;;20.42;8.60;;;2.30;64.40;;;;;;4966984;28;20133;-84
2022/03/12 08:26:56;;;;;;;17.48;9.10;;;2.60;63.30;;;;;;4965694;28;20955;-85
2022/03/12 08:29:22;;;;;;;17.00;8.75;;;2.90;62.60;;;;;;4970011;28;20610;-82
2022/03/12 08:31:48;;;;;;;19.23;9.82;;;3.20;62.60;;;;;;4965229;28;20032;-84
2022/03/12 08:34:14;;;;;;;17.73;8.43;;;3.10;61.30;;;;;;4968532;28;20035;-84
2022/03/12 08:36:41;;;;;;;24.00;9.85;;;3.00;62.80;;;;;;4967795;28;20422;-84
2022/03/12 08:39:07;;;;;;;21.35;8.88;;;3.40;61.50;;;;;;4965804;28;20027;-85
2022/03/12 08:41:34;;;;;;;16.75;8.63;;;3.50;61.50;;;;;;4970345;28;20093;-83
2022/03/12 08:44:00;;;;;;;22.20;9.13;;;3.70;60.70;;;;;;4968392;28;20038;-84
2022/03/12 08:46:26;;;;;;;27.98;9.30;;;3.90;59.30;;;;;;4964172;28;20692;-85
2022/03/12 08:48:51;;;;;;;19.73;10.07;;;3.90;59.50;;;;;;4966942;28;20046;-87
2022/03/12 08:51:17;;;;;;;23.77;10.13;;;4.30;60.00;;;;;;4967027;28;20051;-86
2022/03/12 08:53:43;;;;;;;32.45;10.32;;;4.40;58.30;;;;;;4969640;28;20443;-87
2022/03/12 08:56:09;;;;;;;18.45;10.57;;;4.30;57.30;;;;;;4963958;28;20039;-87
2022/03/12 08:58:36;;;;;;;17.52;9.45;;;4.30;57.30;;;;;;4968161;28;20027;-88
2022/03/12 09:01:05;;;;;;;22.23;9.38;;;4.40;56.80;;;;;;4969754;28;20375;-87
2022/03/12 09:03:31;;;;;;;17.77;8.38;;;4.60;56.40;;;;;;4969311;28;20043;-86
2022/03/12 09:05:57;;;;;;;15.85;8.68;;;4.90;56.50;;;;;;4969229;28;20034;-85
2022/03/12 09:08:22;;;;;;;22.25;10.30;;;5.20;54.90;;;;;;4968927;28;20031;-85
2022/03/12 09:10:48;;;;;;;23.95;11.30;;;5.30;53.70;;;;;;4968488;28;20057;-86
2022/03/12 09:13:17;;;;;;;18.52;10.02;;;5.60;54.20;;;;;;4969527;28;20043;-86
2022/03/12 09:15:43;;;;;;;20.92;11.05;;;5.80;53.20;;;;;;4969519;28;20054;-86
2022/03/12 09:18:09;;;;;;;21.60;11.30;;;5.60;52.70;;;;;;4969684;28;20576;-87
2022/03/12 09:20:43;;;;;;;22.02;11.52;;;5.50;53.50;;;;;;4968525;28;20030;-88
2022/03/12 09:23:09;;;;;;;21.35;10.65;;;5.40;55.30;;;;;;4967018;28;20035;-84
2022/03/12 09:25:34;;;;;;;28.10;11.55;;;5.60;53.90;;;;;;4969713;28;20035;-86
2022/03/12 09:28:01;;;;;;;41.22;11.70;;;6.10;53.70;;;;;;4984761;28;20037;-85
2022/03/12 09:30:27;;;;;;;19.38;10.48;;;6.50;51.50;;;;;;4969386;28;20454;-85
2022/03/12 09:32:53;;;;;;;72.05;11.88;;;6.70;50.60;;;;;;4984835;28;20022;-84
2022/03/12 09:35:20;;;;;;;16.73;10.07;;;6.90;51.20;;;;;;4968350;28;20477;-85
2022/03/12 09:37:46;;;;;;;17.73;10.07;;;7.10;50.10;;;;;;4969930;28;20038;-84
2022/03/12 09:40:15;;;;;;;20.50;10.60;;;7.10;50.50;;;;;;4968591;28;20062;-84
2022/03/12 09:42:44;;;;;;;21.10;11.43;;;7.20;50.10;;;;;;4969461;28;20482;-85
2022/03/12 09:45:11;;;;;;;18.33;10.80;;;7.10;49.20;;;;;;4969439;28;20519;-84
2022/03/12 09:47:37;;;;;;;33.50;11.38;;;7.00;50.30;;;;;;4968817;28;20390;-85
2022/03/12 09:50:04;;;;;;;17.13;10.07;;;7.10;50.00;;;;;;4969546;28;20030;-85
2022/03/12 09:52:31;;;;;;;27.77;11.00;;;7.10;50.70;;;;;;4965528;28;20023;-86
2022/03/12 09:54:57;;;;;;;22.70;11.73;;;7.30;49.10;;;;;;4969515;28;20451;-86
2022/03/12 09:57:23;;;;;;;26.63;10.85;;;7.40;48.50;;;;;;4969845;28;20122;-84
2022/03/12 09:59:49;;;;;;;18.08;10.05;;;7.60;48.40;;;;;;4964446;28;20093;-85
2022/03/12 10:02:14;;;;;;;31.05;13.55;;;7.80;47.60;;;;;;4968901;28;20265;-84
2022/03/12 10:04:40;;;;;;;71.28;14.35;;;7.80;48.50;;;;;;4969794;28;20051;-85
2022/03/12 10:07:08;;;;;;;21.67;10.52;;;7.80;47.10;;;;;;4969458;28;20035;-85
2022/03/12 10:09:34;;;;;;;25.05;12.27;;;7.70;47.40;;;;;;4969675;28;20067;-86
2022/03/12 10:12:01;;;;;;;20.42;12.55;;;7.90;48.30;;;;;;4970628;28;20035;-85
2022/03/12 10:14:27;;;;;;;19.92;11.02;;;8.00;47.70;;;;;;4970841;28;20168;-85
2022/03/12 10:16:53;;;;;;;20.42;12.65;;;7.90;47.70;;;;;;4973392;28;20199;-85
2022/03/12 10:19:19;;;;;;;22.02;11.00;;;8.10;46.60;;;;;;4972208;28;20042;-85
2022/03/12 10:21:46;;;;;;;19.60;11.98;;;8.20;46.50;;;;;;4972596;28;20034;-84
2022/03/12 10:24:13;;;;;;;21.55;10.40;;;8.20;45.30;;;;;;4972013;28;20038;-85
2022/03/12 10:26:39;;;;;;;22.15;11.50;;;8.00;46.80;;;;;;4987506;28;20415;-84
2022/03/12 10:29:09;;;;;;;20.17;11.77;;;8.40;46.90;;;;;;4972566;28;20097;-84
2022/03/12 10:31:38;;;;;;;19.95;12.43;;;8.50;46.80;;;;;;4972284;28;20061;-84
2022/03/12 10:34:33;;;;;;;19.67;11.98;;;8.60;45.30;;;;;;4970948;28;20466;-84
2022/03/12 10:36:59;;;;;;;20.63;12.27;;;8.90;45.00;;;;;;4967728;28;20038;-83
2022/03/12 10:39:33;;;;;;;25.73;12.00;;;9.30;44.60;;;;;;4970983;28;20031;-83
2022/03/12 10:42:07;;;;;;;19.60;11.90;;;9.50;43.60;;;;;;4972659;28;20034;-83
2022/03/12 10:44:42;;;;;;;21.20;12.57;;;9.80;42.70;;;;;;4972670;28;20469;-84
2022/03/12 10:47:24;;;;;;;26.70;12.82;;;9.70;42.70;;;;;;4971205;28;20161;-82
2022/03/12 10:50:05;;;;;;;27.17;13.20;;;9.70;42.80;;;;;;4972075;28;20169;-82
2022/03/12 10:52:32;;;;;;;48.33;13.50;;;9.70;41.80;;;;;;4968602;28;20397;-82
2022/03/12 10:54:58;;;;;;;23.45;13.02;;;9.70;42.80;;;;;;4969714;28;20033;-83
2022/03/12 10:57:24;;;;;;;35.42;13.48;;;10.40;41.10;;;;;;4972298;28;20382;-83
2022/03/12 10:59:54;;;;;;;45.47;14.73;;;10.70;40.20;;;;;;4972557;28;20485;-83
2022/03/12 11:02:20;;;;;;;24.30;12.63;;;11.00;40.20;;;;;;4972508;28;20511;-83
2022/03/12 11:04:46;;;;;;;23.08;11.25;;;10.80;39.10;;;;;;4971149;28;20050;-83
2022/03/12 11:07:28;;;;;;;22.02;12.50;;;11.40;38.50;;;;;;4970465;28;20043;-83
2022/03/12 11:09:55;;;;;;;25.13;13.95;;;11.60;37.80;;;;;;4971422;28;20043;-82
2022/03/12 11:12:35;;;;;;;22.70;12.50;;;11.60;38.10;;;;;;4971770;28;20487;-83
2022/03/12 11:15:10;;;;;;;23.42;14.00;;;11.50;37.20;;;;;;4962101;28;20034;-81
2022/03/12 11:17:53;;;;;;;29.30;14.98;;;11.60;37.50;;;;;;4970491;28;20113;-81
2022/03/12 11:20:22;;;;;;;20.55;13.18;;;12.30;36.60;;;;;;4971285;28;20042;-81
2022/03/12 11:23:05;;;;;;;20.33;12.10;;;12.60;35.60;;;;;;4970248;28;20027;-81
2022/03/12 11:25:31;;;;;;;20.15;12.32;;;12.40;35.80;;;;;;4979285;28;20138;-81
2022/03/12 11:28:00;;;;;;;19.15;12.25;;;12.10;36.60;;;;;;4971392;28;20438;-81
2022/03/12 11:30:30;;;;;;;23.05;13.07;;;12.50;37.80;;;;;;4968262;28;20031;-81
2022/03/12 11:33:07;;;;;;;23.98;14.05;;;12.30;37.30;;;;;;4971704;28;20070;-80
2022/03/12 11:35:44;;;;;;;21.20;13.60;;;12.20;37.60;;;;;;4971107;28;20486;-81
2022/03/12 11:38:15;;;;;;;24.25;13.02;;;11.70;39.20;;;;;;4969354;28;20049;-81
2022/03/12 11:40:49;;;;;;;33.85;13.90;;;11.50;40.40;;;;;;4971333;28;20031;-80
2022/03/12 11:43:24;;;;;;;19.33;11.55;;;11.50;40.70;;;;;;4971141;28;20030;-82
2022/03/12 11:45:50;;;;;;;21.25;11.32;;;12.10;40.50;;;;;;4969954;28;20026;-81
2022/03/12 11:48:17;;;;;;;24.42;12.48;;;12.60;38.60;;;;;;4971197;28;20027;-81
2022/03/12 11:50:43;;;;;;;23.05;12.77;;;13.00;37.70;;;;;;4970840;28;20109;-81
2022/03/12 11:53:14;;;;;;;26.42;13.85;;;13.40;37.00;;;;;;4970555;28;20030;-80
2022/03/12 11:55:40;;;;;;;18.50;11.95;;;13.60;36.10;;;;;;4970742;28;20529;-80
2022/03/12 11:58:05;;;;;;;25.00;12.15;;;14.00;35.30;;;;;;4969769;28;20039;-80
2022/03/12 12:00:31;;;;;;;19.08;12.57;;;13.90;34.70;;;;;;4969997;28;20031;-80
2022/03/12 12:02:57;;;;;;;23.88;13.75;;;14.00;35.70;;;;;;4970240;28;20374;-80
2022/03/12 12:05:27;;;;;;;20.23;13.07;;;14.30;34.80;;;;;;4967405;28;20034;-79
2022/03/12 12:07:55;;;;;;;21.35;12.18;;;14.80;33.80;;;;;;4969332;28;20026;-79
2022/03/12 12:10:27;;;;;;;19.90;12.45;;;14.90;33.70;;;;;;4968855;28;20034;-80
2022/03/12 12:12:53;;;;;;;23.52;13.65;;;14.10;34.40;;;;;;4970116;28;20018;-80
2022/03/12 12:15:28;;;;;;;24.58;14.32;;;14.20;34.50;;;;;;4969065;28;20058;-80
2022/03/12 12:17:55;;;;;;;23.27;13.43;;;14.50;34.90;;;;;;4969020;28;20106;-80
2022/03/12 12:20:23;;;;;;;21.27;13.10;;;14.80;34.00;;;;;;4969689;28;20034;-80
2022/03/12 12:22:49;;;;;;;22.23;14.25;;;15.10;34.10;;;;;;4968517;28;20027;-80
2022/03/12 12:25:16;;;;;;;21.75;13.35;;;15.00;34.00;;;;;;4969785;28;20089;-80
2022/03/12 12:27:49;;;;;;;18.08;11.90;;;15.20;33.70;;;;;;4969919;28;20023;-80
2022/03/12 12:30:37;;;;;;;23.60;14.45;;;14.70;35.00;;;;;;4968186;28;20069;-80
2022/03/12 12:33:16;;;;;;;21.27;12.60;;;15.20;34.20;;;;;;4969637;28;20054;-80
2022/03/12 12:35:43;;;;;;;22.13;13.07;;;15.80;33.60;;;;;;4968013;28;20026;-80
2022/03/12 12:38:09;;;;;;;19.63;12.35;;;16.10;33.60;;;;;;4969810;28;20027;-80
2022/03/12 12:40:42;;;;;;;22.98;14.13;;;17.10;31.00;;;;;;4970380;28;20497;-80